createdAt,value
2019-04-19T00:00:03.323Z,1027.15
2019-04-19T00:01:04.524Z,1027.15
2019-04-19T00:02:04.744Z,1027.12
2019-04-19T00:03:00.236Z,1027.14
2019-04-19T00:04:04.627Z,1027.15
2019-04-19T00:05:03.014Z,1027.15
2019-04-19T00:06:00.191Z,1027.14
2019-04-19T00:07:06.793Z,1027.16
2019-04-19T00:08:15.159Z,1027.1
2019-04-19T00:09:52.101Z,1027.1
2019-04-19T00:10:59.709Z,1027.12
2019-04-19T00:12:17.893Z,1027.11
2019-04-19T00:13:06.126Z,1027.12
2019-04-19T00:14:04.309Z,1027.12
2019-04-19T00:15:04.026Z,1027.14
2019-04-19T00:17:05.967Z,1027.13
2019-04-19T00:18:07.748Z,1027.12
2019-04-19T00:19:32.836Z,1027.11
2019-04-19T00:23:24.336Z,1027.14
2019-04-19T00:24:14.479Z,1027.15
2019-04-19T00:25:15.462Z,1027.12
2019-04-19T00:26:14.807Z,1027.13
2019-04-19T00:27:14.221Z,1027.15
2019-04-19T00:28:20.514Z,1027.13
2019-04-19T00:29:21.874Z,1027.09
2019-04-19T00:30:45.112Z,1027.11
2019-04-19T00:32:27.691Z,1027.1
2019-04-19T00:33:47.421Z,1027.14
2019-04-19T00:34:42.316Z,1027.11
2019-04-19T00:35:43.329Z,1027.12
2019-04-19T00:36:42.587Z,1027.15
2019-04-19T00:37:42.783Z,1027.13
2019-04-19T00:40:45.790Z,1027.15
2019-04-19T00:42:47.828Z,1027.19
2019-04-19T00:44:45.235Z,1027.19
2019-04-19T00:46:53.203Z,1027.19
2019-04-19T00:48:42.182Z,1027.21
2019-04-19T00:50:07.044Z,1027.17
2019-04-19T00:51:39.844Z,1027.18
2019-04-19T00:53:22.401Z,1027.17
2019-04-19T00:54:40.876Z,1027.21
2019-04-19T00:55:59.624Z,1027.19
2019-04-19T00:57:06.118Z,1027.19
2019-04-19T00:58:11.971Z,1027.2
2019-04-19T00:59:06.983Z,1027.21
2019-04-19T01:00:04.000Z,1027.18
2019-04-19T01:01:09.563Z,1027.22
2019-04-19T01:02:08.817Z,1027.21
2019-04-19T01:03:04.197Z,1027.24
2019-04-19T01:04:05.029Z,1027.25
2019-04-19T01:05:08.579Z,1027.26
2019-04-19T01:06:08.825Z,1027.26
2019-04-19T01:07:06.550Z,1027.3
2019-04-19T01:08:07.158Z,1027.28
2019-04-19T01:09:18.952Z,1027.29
2019-04-19T01:10:52.555Z,1027.26
2019-04-19T01:12:26.063Z,1027.33
2019-04-19T01:14:06.044Z,1027.33
2019-04-19T01:15:31.538Z,1027.3
2019-04-19T01:17:05.073Z,1027.32
2019-04-19T01:18:41.695Z,1027.31
2019-04-19T01:19:32.109Z,1027.35
2019-04-19T01:20:31.709Z,1027.32
2019-04-19T01:21:32.234Z,1027.36
2019-04-19T01:23:39.242Z,1027.36
2019-04-19T01:24:37.204Z,1027.38
2019-04-19T01:25:32.446Z,1027.36
2019-04-19T01:26:37.044Z,1027.38
2019-04-19T01:27:34.650Z,1027.36
2019-04-19T01:28:33.432Z,1027.4
2019-04-19T01:29:37.963Z,1027.4
2019-04-19T01:30:36.883Z,1027.43
2019-04-19T01:31:32.775Z,1027.42
2019-04-19T01:32:34.898Z,1027.42
2019-04-19T01:33:36.445Z,1027.43
2019-04-19T01:34:32.762Z,1027.45
2019-04-19T01:35:38.936Z,1027.43
2019-04-19T01:36:37.076Z,1027.43
2019-04-19T01:37:33.144Z,1027.45
2019-04-19T01:38:38.340Z,1027.49
2019-04-19T01:40:12.929Z,1027.44
2019-04-19T01:41:57.805Z,1027.46
2019-04-19T01:43:47.072Z,1027.43
2019-04-19T01:45:41.661Z,1027.47
2019-04-19T01:47:30.239Z,1027.48
2019-04-19T01:49:15.845Z,1027.48
2019-04-19T01:50:57.834Z,1027.5
2019-04-19T01:54:45.251Z,1027.57
2019-04-19T01:55:51.196Z,1027.5
2019-04-19T01:56:51.891Z,1027.52
2019-04-19T01:57:47.264Z,1027.56
2019-04-19T01:58:52.338Z,1027.52
2019-04-19T01:59:52.061Z,1027.55
2019-04-19T02:00:51.968Z,1027.6
2019-04-19T02:02:52.581Z,1027.58
2019-04-19T02:03:49.690Z,1027.61
2019-04-19T02:04:47.668Z,1027.6
2019-04-19T02:05:50.458Z,1027.58
2019-04-19T02:06:49.265Z,1027.61
2019-04-19T02:07:48.595Z,1027.58
2019-04-19T02:08:51.835Z,1027.6
2019-04-19T02:09:58.788Z,1027.59
2019-04-19T02:11:23.090Z,1027.62
2019-04-19T02:12:44.581Z,1027.6
2019-04-19T02:13:57.706Z,1027.62
2019-04-19T02:14:58.982Z,1027.63
2019-04-19T02:15:54.607Z,1027.64
2019-04-19T02:16:57.588Z,1027.68
2019-04-19T02:17:53.953Z,1027.68
2019-04-19T02:18:53.893Z,1027.65
2019-04-19T02:19:58.858Z,1027.67
2019-04-19T02:20:53.300Z,1027.72
2019-04-19T02:21:53.878Z,1027.72
2019-04-19T02:22:57.714Z,1027.71
2019-04-19T02:23:56.069Z,1027.67
2019-04-19T02:24:55.324Z,1027.69
2019-04-19T02:25:59.050Z,1027.72
2019-04-19T02:26:59.291Z,1027.69
2019-04-19T02:27:53.038Z,1027.67
2019-04-19T02:28:55.431Z,1027.7
2019-04-19T02:29:59.369Z,1027.71
2019-04-19T02:31:43.179Z,1027.73
2019-04-19T02:34:21.055Z,1027.73
2019-04-19T02:37:00.244Z,1027.77
2019-04-19T02:46:07.614Z,1027.76
2019-04-19T02:49:19.832Z,1027.78
2019-04-19T02:56:10.727Z,1027.81
2019-04-19T02:59:56.656Z,1027.81
2019-04-19T03:03:12.625Z,1027.78
2019-04-19T03:05:58.511Z,1027.8
2019-04-19T03:07:04.649Z,1027.81
2019-04-19T03:08:01.757Z,1027.82
2019-04-19T03:09:01.565Z,1027.77
2019-04-19T03:10:04.829Z,1027.83
2019-04-19T03:11:11.499Z,1027.8
2019-04-19T03:13:07.853Z,1027.79
2019-04-19T03:14:55.982Z,1027.83
2019-04-19T03:16:57.742Z,1027.79
2019-04-19T03:18:51.644Z,1027.8
2019-04-19T03:20:42.325Z,1027.84
2019-04-19T03:22:33.865Z,1027.83
2019-04-19T03:24:22.227Z,1027.87
2019-04-19T03:26:15.234Z,1027.87
2019-04-19T03:27:37.538Z,1027.86
2019-04-19T03:28:52.986Z,1027.87
2019-04-19T03:30:05.240Z,1027.88
2019-04-19T03:32:44.483Z,1027.91
2019-04-19T03:35:30.775Z,1027.89
2019-04-19T03:37:37.851Z,1027.9
2019-04-19T03:39:51.189Z,1027.92
2019-04-19T03:42:40.382Z,1027.92
2019-04-19T03:44:46.042Z,1027.96
2019-04-19T03:46:57.617Z,1027.95
2019-04-19T03:49:06.018Z,1028
2019-04-19T03:51:23.191Z,1027.94
2019-04-19T03:56:06.142Z,1027.99
2019-04-19T03:57:42.334Z,1027.99
2019-04-19T03:58:33.990Z,1027.98
2019-04-19T03:59:33.363Z,1027.97
2019-04-19T04:00:34.283Z,1027.98
2019-04-19T04:03:38.312Z,1028.08
2019-04-19T04:04:35.563Z,1028.08
2019-04-19T04:05:38.530Z,1028.09
2019-04-19T04:06:37.779Z,1028.11
2019-04-19T04:07:35.535Z,1028.09
2019-04-19T04:08:38.720Z,1028.13
2019-04-19T04:09:40.334Z,1028.13
2019-04-19T04:10:38.857Z,1028.14
2019-04-19T04:13:04.402Z,1028.14
2019-04-19T04:14:29.443Z,1028.15
2019-04-19T04:16:05.489Z,1028.18
2019-04-19T04:16:55.014Z,1028.22
2019-04-19T04:17:54.277Z,1028.19
2019-04-19T04:18:53.750Z,1028.2
2019-04-19T04:19:54.597Z,1028.21
2019-04-19T04:20:57.051Z,1028.23
2019-04-19T04:21:55.365Z,1028.25
2019-04-19T04:22:55.499Z,1028.25
2019-04-19T04:24:04.612Z,1028.24
2019-04-19T04:25:14.982Z,1028.28
2019-04-19T04:26:12.880Z,1028.28
2019-04-19T04:27:31.384Z,1028.28
2019-04-19T04:29:04.890Z,1028.3
2019-04-19T04:30:15.090Z,1028.27
2019-04-19T04:31:39.646Z,1028.31
2019-04-19T04:33:10.253Z,1028.35
2019-04-19T04:34:40.661Z,1028.33
2019-04-19T04:36:36.043Z,1028.35
2019-04-19T04:38:08.709Z,1028.41
2019-04-19T04:38:58.976Z,1028.41
2019-04-19T04:39:59.763Z,1028.44
2019-04-19T04:41:05.531Z,1028.41
2019-04-19T04:42:11.026Z,1028.41
2019-04-19T04:43:37.652Z,1028.44
2019-04-19T04:45:57.496Z,1028.5
2019-04-19T04:48:07.393Z,1028.6
2019-04-19T04:52:09.534Z,1028.64
2019-04-19T04:53:01.737Z,1028.67
2019-04-19T04:54:01.887Z,1028.66
2019-04-19T04:55:00.995Z,1028.7
2019-04-19T04:56:04.112Z,1028.75
2019-04-19T04:57:07.130Z,1028.71
2019-04-19T04:58:03.742Z,1028.75
2019-04-19T04:59:06.024Z,1028.77
2019-04-19T05:00:02.744Z,1028.81
2019-04-19T05:01:05.728Z,1028.85
2019-04-19T05:02:17.216Z,1028.86
2019-04-19T05:04:18.358Z,1028.9
2019-04-19T05:06:10.971Z,1028.97
2019-04-19T05:08:24.031Z,1029
2019-04-19T05:10:31.465Z,1029.07
2019-04-19T05:13:10.265Z,1029.17
2019-04-19T05:15:19.739Z,1029.14
2019-04-19T05:17:56.633Z,1029.21
2019-04-19T05:20:09.019Z,1029.13
2019-04-19T05:22:04.353Z,1029.13
2019-04-19T05:24:04.795Z,1029.16
2019-04-19T05:27:03.590Z,1029.21
2019-04-19T05:29:05.947Z,1029.24
2019-04-19T05:29:54.865Z,1029.3
2019-04-19T05:30:58.618Z,1029.33
2019-04-19T05:31:55.794Z,1029.33
2019-04-19T05:33:03.356Z,1029.35
2019-04-19T05:34:41.233Z,1029.4
2019-04-19T05:36:23.466Z,1029.46
2019-04-19T05:38:14.714Z,1029.56
2019-04-19T05:40:32.435Z,1029.62
2019-04-19T05:42:10.414Z,1029.63
2019-04-19T05:44:29.490Z,1029.65
2019-04-19T05:47:29.170Z,1029.64
2019-04-19T05:48:45.613Z,1029.69
2019-04-19T05:50:51.286Z,1029.69
2019-04-19T05:53:07.380Z,1029.74
2019-04-19T05:54:08.775Z,1029.72
2019-04-19T05:55:06.469Z,1029.7
2019-04-19T05:56:05.442Z,1029.68
2019-04-19T05:57:26.443Z,1029.73
2019-04-19T05:58:57.788Z,1029.82
2019-04-19T06:00:20.326Z,1029.79
2019-04-19T06:02:12.297Z,1029.94
2019-04-19T06:03:40.489Z,1029.99
2019-04-19T06:07:53.707Z,1030.2
2019-04-19T06:08:40.898Z,1030.32
2019-04-19T06:09:40.921Z,1030.4
2019-04-19T06:10:46.399Z,1030.45
2019-04-19T06:11:41.605Z,1030.5
2019-04-19T06:12:40.886Z,1030.51
2019-04-19T06:13:43.866Z,1030.55
2019-04-19T06:16:05.507Z,1030.64
2019-04-19T06:17:46.571Z,1030.7
2019-04-19T06:19:39.781Z,1030.78
2019-04-19T06:21:32.513Z,1030.75
2019-04-19T06:23:12.010Z,1030.88
2019-04-19T06:25:24.433Z,1030.88
2019-04-19T06:28:22.364Z,1030.89
2019-04-19T06:30:40.800Z,1030.85
2019-04-19T06:33:06.282Z,1030.84
2019-04-19T06:34:58.482Z,1030.79
2019-04-19T06:36:04.417Z,1030.78
2019-04-19T06:37:08.006Z,1030.82
2019-04-19T06:38:01.182Z,1030.7
2019-04-19T06:39:01.395Z,1030.6
2019-04-19T06:42:04.266Z,1030.74
2019-04-19T06:43:08.531Z,1030.73
2019-04-19T06:44:34.028Z,1030.7
2019-04-19T06:46:28.580Z,1030.67
2019-04-19T06:47:40.433Z,1030.72
2019-04-19T06:48:35.322Z,1030.71
2019-04-19T06:49:34.697Z,1030.68
2019-04-19T06:50:38.225Z,1030.63
2019-04-19T06:51:40.577Z,1030.61
2019-04-19T06:52:35.997Z,1030.66
2019-04-19T06:53:40.873Z,1030.64
2019-04-19T06:54:37.259Z,1030.72
2019-04-19T06:55:36.887Z,1030.71
2019-04-19T06:56:38.095Z,1030.68
2019-04-19T06:57:47.171Z,1030.63
2019-04-19T06:58:49.827Z,1030.59
2019-04-19T07:00:19.809Z,1030.65
2019-04-19T07:01:39.181Z,1030.55
2019-04-19T07:02:32.807Z,1030.57
2019-04-19T07:03:32.309Z,1030.54
2019-04-19T07:04:32.272Z,1030.57
2019-04-19T07:06:01.863Z,1030.53
2019-04-19T07:08:02.144Z,1030.48
2019-04-19T07:11:00.077Z,1030.48
2019-04-19T07:13:04.013Z,1030.46
2019-04-19T07:14:17.140Z,1030.44
2019-04-19T07:16:01.587Z,1030.41
2019-04-19T07:18:05.695Z,1030.09
2019-04-19T07:19:57.291Z,1030.04
2019-04-19T07:21:55.105Z,1030.05
2019-04-19T07:23:32.001Z,1030.06
2019-04-19T07:26:14.821Z,1030.07
2019-04-19T07:27:52.702Z,1030.08
2019-04-19T07:28:45.218Z,1030.07
2019-04-19T07:29:46.921Z,1030.08
2019-04-19T07:30:49.015Z,1030.1
2019-04-19T07:31:44.914Z,1030.07
2019-04-19T07:32:49.693Z,1030.09
2019-04-19T07:34:06.870Z,1030.08
2019-04-19T07:36:00.347Z,1030.08
2019-04-19T07:37:45.992Z,1030.09
2019-04-19T07:40:17.336Z,1030.16
2019-04-19T07:42:38.642Z,1030.24
2019-04-19T07:44:14.156Z,1030.23
2019-04-19T07:45:10.586Z,1030.26
2019-04-19T07:47:00.786Z,1030.2
2019-04-19T07:48:15.887Z,1030.24
2019-04-19T07:49:12.763Z,1030.21
2019-04-19T07:50:17.705Z,1030.26
2019-04-19T07:51:15.737Z,1030.17
2019-04-19T07:54:12.544Z,1030.16
2019-04-19T07:57:20.995Z,1030.14
2019-04-19T08:03:17.032Z,1030.1
2019-04-19T08:06:27.375Z,1030.03
2019-04-19T08:17:17.532Z,1030.25
2019-04-19T08:27:51.094Z,1030.13
2019-04-19T08:30:13.459Z,1030.09
2019-04-19T08:31:10.398Z,1030.11
2019-04-19T08:32:09.091Z,1030.06
2019-04-19T08:33:08.587Z,1030.06
2019-04-19T08:34:13.302Z,1030.06
2019-04-19T08:35:12.107Z,1030.06
2019-04-19T08:36:11.189Z,1029.96
2019-04-19T08:37:16.055Z,1029.8
2019-04-19T08:38:13.822Z,1029.78
2019-04-19T08:39:24.644Z,1029.75
2019-04-19T08:41:32.937Z,1029.76
2019-04-19T08:43:20.861Z,1029.74
2019-04-19T08:44:57.997Z,1029.82
2019-04-19T08:45:50.729Z,1029.77
2019-04-19T08:46:49.970Z,1029.76
2019-04-19T08:47:59.114Z,1029.76
2019-04-19T08:48:56.101Z,1029.79
2019-04-19T08:49:53.339Z,1029.74
2019-04-19T08:50:54.945Z,1029.73
2019-04-19T08:51:53.609Z,1029.67
2019-04-19T08:52:58.011Z,1029.71
2019-04-19T08:54:52.007Z,1029.7
2019-04-19T08:56:40.886Z,1029.69
2019-04-19T08:57:32.203Z,1029.72
2019-04-19T08:58:43.191Z,1029.72
2019-04-19T09:01:18.526Z,1029.7
2019-04-19T09:03:07.175Z,1029.71
2019-04-19T09:05:21.924Z,1029.74
2019-04-19T09:08:36.909Z,1029.72
2019-04-19T09:13:22.055Z,1029.62
2019-04-19T09:15:23.567Z,1029.68
2019-04-19T09:20:00.436Z,1029.56
2019-04-19T09:21:44.510Z,1029.52
2019-04-19T09:23:23.468Z,1029.52
2019-04-19T09:24:28.870Z,1029.53
2019-04-19T09:25:55.723Z,1029.54
2019-04-19T09:28:04.323Z,1029.47
2019-04-19T09:30:36.612Z,1029.49
2019-04-19T09:32:06.234Z,1029.45
2019-04-19T09:33:06.061Z,1029.51
2019-04-19T09:34:03.663Z,1029.56
2019-04-19T09:35:03.695Z,1029.51
2019-04-19T09:36:05.821Z,1029.53
2019-04-19T09:37:09.841Z,1029.56
2019-04-19T09:38:43.091Z,1029.47
2019-04-19T09:40:07.020Z,1029.47
2019-04-19T09:41:05.850Z,1029.46
2019-04-19T09:42:09.463Z,1029.47
2019-04-19T09:43:34.232Z,1029.47
2019-04-19T09:44:43.435Z,1029.44
2019-04-19T09:45:38.145Z,1029.45
2019-04-19T09:46:38.001Z,1029.46
2019-04-19T09:47:37.816Z,1029.48
2019-04-19T09:48:55.219Z,1029.44
2019-04-19T09:50:26.946Z,1029.42
2019-04-19T09:52:35.328Z,1029.4
2019-04-19T09:55:03.097Z,1029.42
2019-04-19T09:57:00.990Z,1029.38
2019-04-19T09:59:00.155Z,1029.38
2019-04-19T09:59:51.549Z,1029.32
2019-04-19T10:00:50.452Z,1029.37
2019-04-19T10:02:53.331Z,1029.27
2019-04-19T10:03:52.601Z,1029.24
2019-04-19T10:04:48.595Z,1029.3
2019-04-19T10:05:48.668Z,1029.24
2019-04-19T10:06:48.974Z,1029.2
2019-04-19T10:07:48.313Z,1029.19
2019-04-19T10:08:48.345Z,1029.17
2019-04-19T10:10:49.950Z,1029.28
2019-04-19T10:11:48.671Z,1029.24
2019-04-19T10:12:49.648Z,1029.21
2019-04-19T10:13:48.498Z,1029.2
2019-04-19T10:14:48.524Z,1029.25
2019-04-19T10:15:48.554Z,1029.2
2019-04-19T10:16:48.587Z,1029.16
2019-04-19T10:17:48.748Z,1029.19
2019-04-19T10:18:53.890Z,1029.12
2019-04-19T10:19:48.710Z,1029.13
2019-04-19T10:20:48.933Z,1029.14
2019-04-19T10:21:49.371Z,1029.3
2019-04-19T10:22:48.821Z,1029.15
2019-04-19T10:23:49.832Z,1029.21
2019-04-19T10:24:51.288Z,1029.11
2019-04-19T10:26:48.882Z,1029.05
2019-04-19T10:27:49.521Z,1028.99
2019-04-19T10:28:48.940Z,1029.08
2019-04-19T10:29:50.439Z,1029.09
2019-04-19T10:30:48.998Z,1029.09
2019-04-19T10:31:51.549Z,1029.12
2019-04-19T10:32:51.734Z,1029.06
2019-04-19T10:33:54.621Z,1029.1
2019-04-19T10:34:50.263Z,1029
2019-04-19T10:35:49.667Z,1029
2019-04-19T10:36:51.261Z,1028.99
2019-04-19T10:37:49.325Z,1028.98
2019-04-19T10:38:49.725Z,1028.99
2019-04-19T10:39:49.730Z,1029.01
2019-04-19T10:40:49.305Z,1028.94
2019-04-19T10:42:49.438Z,1028.93
2019-04-19T10:44:00.784Z,1028.92
2019-04-19T10:44:49.898Z,1028.9
2019-04-19T10:45:50.012Z,1028.86
2019-04-19T10:46:49.456Z,1028.9
2019-04-19T10:47:49.534Z,1028.9
2019-04-19T10:48:58.005Z,1028.86
2019-04-19T10:49:55.027Z,1028.85
2019-04-19T10:51:00.055Z,1028.95
2019-04-19T10:52:00.628Z,1028.93
2019-04-19T10:53:00.656Z,1028.9
2019-04-19T10:54:00.153Z,1028.91
2019-04-19T10:55:00.164Z,1028.87
2019-04-19T10:56:00.389Z,1028.91
2019-04-19T10:57:00.218Z,1028.92
2019-04-19T10:58:01.103Z,1028.88
2019-04-19T10:59:00.786Z,1028.87
2019-04-19T11:00:00.888Z,1028.84
2019-04-19T11:01:00.977Z,1028.9
2019-04-19T11:02:00.355Z,1028.91
2019-04-19T11:03:01.092Z,1028.89
2019-04-19T11:04:00.408Z,1028.85
2019-04-19T11:05:00.723Z,1028.86
2019-04-19T11:06:00.793Z,1028.88
2019-04-19T11:07:00.490Z,1028.87
2019-04-19T11:08:01.306Z,1028.83
2019-04-19T11:09:00.551Z,1028.81
2019-04-19T11:10:01.776Z,1028.82
2019-04-19T11:11:01.300Z,1028.8
2019-04-19T11:13:00.807Z,1028.78
2019-04-19T11:14:00.677Z,1028.78
2019-04-19T11:15:00.703Z,1028.76
2019-04-19T11:16:00.729Z,1028.77
2019-04-19T11:17:01.799Z,1028.79
2019-04-19T11:18:01.505Z,1028.75
2019-04-19T11:19:10.892Z,1028.77
2019-04-19T11:20:37.977Z,1028.74
2019-04-19T11:21:31.727Z,1028.71
2019-04-19T11:22:32.061Z,1028.75
2019-04-19T11:23:31.489Z,1028.72
2019-04-19T11:24:31.877Z,1028.73
2019-04-19T11:26:31.204Z,1028.67
2019-04-19T11:27:31.229Z,1028.65
2019-04-19T11:28:31.343Z,1028.65
2019-04-19T11:29:32.138Z,1028.63
2019-04-19T11:30:31.309Z,1028.61
2019-04-19T11:31:31.895Z,1028.6
2019-04-19T11:32:31.361Z,1028.64
2019-04-19T11:33:31.389Z,1028.6
2019-04-19T11:34:31.482Z,1028.64
2019-04-19T11:35:31.655Z,1028.59
2019-04-19T11:36:31.534Z,1028.57
2019-04-19T11:37:32.587Z,1028.64
2019-04-19T11:38:31.518Z,1028.58
2019-04-19T11:39:32.749Z,1028.56
2019-04-19T11:40:31.576Z,1028.6
2019-04-19T11:41:31.596Z,1028.6
2019-04-19T11:42:31.622Z,1028.58
2019-04-19T11:43:31.648Z,1028.59
2019-04-19T11:44:32.736Z,1028.65
2019-04-19T11:45:31.701Z,1028.57
2019-04-19T11:46:31.932Z,1028.57
2019-04-19T11:47:31.752Z,1028.61
2019-04-19T11:48:33.350Z,1028.62
2019-04-19T11:49:36.111Z,1028.57
2019-04-19T11:50:31.830Z,1028.58
2019-04-19T11:51:32.143Z,1028.57
2019-04-19T11:52:31.982Z,1028.55
2019-04-19T11:53:32.357Z,1028.55
2019-04-19T11:54:32.506Z,1028.57
2019-04-19T11:55:32.695Z,1028.54
2019-04-19T11:56:36.438Z,1028.56
2019-04-19T11:58:33.982Z,1028.58
2019-04-19T11:59:38.815Z,1028.59
2019-04-19T12:00:32.088Z,1028.54
2019-04-19T12:01:32.173Z,1028.55
2019-04-19T12:02:32.140Z,1028.51
2019-04-19T12:03:32.266Z,1028.47
2019-04-19T12:04:32.303Z,1028.43
2019-04-19T12:05:34.010Z,1028.47
2019-04-19T12:06:32.391Z,1028.47
2019-04-19T12:07:32.491Z,1028.48
2019-04-19T12:08:32.890Z,1028.48
2019-04-19T12:09:32.482Z,1028.48
2019-04-19T12:10:33.872Z,1028.46
2019-04-19T12:11:32.547Z,1028.43
2019-04-19T12:12:32.896Z,1028.5
2019-04-19T12:14:32.747Z,1028.47
2019-04-19T12:15:33.851Z,1028.43
2019-04-19T12:16:32.904Z,1028.45
2019-04-19T12:17:33.432Z,1028.45
2019-04-19T12:18:33.799Z,1028.4
2019-04-19T12:19:39.603Z,1028.4
2019-04-19T12:20:33.113Z,1028.36
2019-04-19T12:21:33.514Z,1028.4
2019-04-19T12:22:32.940Z,1028.39
2019-04-19T12:23:32.762Z,1028.47
2019-04-19T12:24:32.987Z,1028.4
2019-04-19T12:25:33.374Z,1028.37
2019-04-19T12:26:33.561Z,1028.36
2019-04-19T12:27:33.815Z,1028.4
2019-04-19T12:28:33.353Z,1028.38
2019-04-19T12:30:33.593Z,1028.26
2019-04-19T12:31:33.669Z,1028.29
2019-04-19T12:32:33.205Z,1028.27
2019-04-19T12:33:33.320Z,1028.31
2019-04-19T12:34:32.968Z,1028.23
2019-04-19T12:35:32.986Z,1028.24
2019-04-19T12:36:33.134Z,1028.26
2019-04-19T12:37:33.198Z,1028.25
2019-04-19T12:38:33.308Z,1028.19
2019-04-19T12:39:33.090Z,1028.27
2019-04-19T12:40:33.845Z,1028.23
2019-04-19T12:41:34.084Z,1028.21
2019-04-19T12:42:33.855Z,1028.19
2019-04-19T12:43:33.988Z,1028.2
2019-04-19T12:44:33.309Z,1028.19
2019-04-19T12:46:33.275Z,1028.18
2019-04-19T12:47:33.294Z,1028.19
2019-04-19T12:48:33.318Z,1028.19
2019-04-19T12:49:33.344Z,1028.21
2019-04-19T12:50:36.024Z,1028.11
2019-04-19T12:51:34.307Z,1028.15
2019-04-19T12:52:33.660Z,1028.17
2019-04-19T12:53:34.636Z,1028.1
2019-04-19T12:54:34.108Z,1028.13
2019-04-19T12:55:33.498Z,1028.07
2019-04-19T12:56:33.921Z,1028.12
2019-04-19T12:57:34.048Z,1028.07
2019-04-19T12:58:33.574Z,1028.05
2019-04-19T12:59:33.855Z,1028.07
2019-04-19T13:01:33.656Z,1028
2019-04-19T13:02:33.727Z,1028.1
2019-04-19T13:03:33.945Z,1028.06
2019-04-19T13:04:33.728Z,1028.09
2019-04-19T13:05:33.753Z,1028.07
2019-04-19T13:06:33.809Z,1028.04
2019-04-19T13:07:33.804Z,1028.13
2019-04-19T13:08:34.765Z,1028.08
2019-04-19T13:09:34.929Z,1028.04
2019-04-19T13:10:35.223Z,1027.97
2019-04-19T13:11:34.852Z,1027.98
2019-04-19T13:12:34.817Z,1027.97
2019-04-19T13:13:33.956Z,1028.05
2019-04-19T13:14:33.981Z,1028.04
2019-04-19T13:15:34.309Z,1028.01
2019-04-19T13:16:34.549Z,1027.99
2019-04-19T13:17:34.058Z,1027.95
2019-04-19T13:18:34.160Z,1027.96
2019-04-19T13:19:35.293Z,1028.03
2019-04-19T13:20:36.852Z,1027.93
2019-04-19T13:21:34.421Z,1027.96
2019-04-19T13:22:34.482Z,1027.94
2019-04-19T13:23:34.618Z,1027.93
2019-04-19T13:24:34.418Z,1027.93
2019-04-19T13:25:35.351Z,1027.89
2019-04-19T13:26:35.519Z,1027.92
2019-04-19T13:27:42.193Z,1027.94
2019-04-19T13:28:35.376Z,1027.93
2019-04-19T13:29:35.499Z,1027.88
2019-04-19T13:30:43.219Z,1027.87
2019-04-19T13:31:34.712Z,1027.81
2019-04-19T13:33:34.572Z,1027.78
2019-04-19T13:34:34.487Z,1027.84
2019-04-19T13:35:35.109Z,1027.85
2019-04-19T13:36:37.104Z,1027.82
2019-04-19T13:37:34.564Z,1027.81
2019-04-19T13:38:34.930Z,1027.82
2019-04-19T13:39:34.612Z,1027.78
2019-04-19T13:40:34.638Z,1027.77
2019-04-19T13:41:34.915Z,1027.76
2019-04-19T13:42:35.010Z,1027.78
2019-04-19T13:43:35.162Z,1027.79
2019-04-19T13:44:34.821Z,1027.8
2019-04-19T13:45:36.407Z,1027.76
2019-04-19T13:46:34.917Z,1027.83
2019-04-19T13:47:34.814Z,1027.76
2019-04-19T13:49:34.865Z,1027.79
2019-04-19T13:50:37.752Z,1027.84
2019-04-19T13:51:34.915Z,1027.77
2019-04-19T13:52:34.940Z,1027.75
2019-04-19T13:53:34.964Z,1027.73
2019-04-19T13:54:34.990Z,1027.73
2019-04-19T13:55:35.017Z,1027.75
2019-04-19T13:56:36.349Z,1027.69
2019-04-19T13:57:35.554Z,1027.77
2019-04-19T13:58:35.794Z,1027.73
2019-04-19T13:59:41.750Z,1027.68
2019-04-19T14:00:36.211Z,1027.67
2019-04-19T14:01:36.508Z,1027.65
2019-04-19T14:02:35.596Z,1027.65
2019-04-19T14:03:35.347Z,1027.66
2019-04-19T14:05:36.110Z,1027.63
2019-04-19T14:06:36.178Z,1027.59
2019-04-19T14:07:35.316Z,1027.61
2019-04-19T14:08:35.746Z,1027.61
2019-04-19T14:09:35.366Z,1027.59
2019-04-19T14:10:35.394Z,1027.64
2019-04-19T14:11:35.417Z,1027.6
2019-04-19T14:12:36.780Z,1027.61
2019-04-19T14:13:35.466Z,1027.59
2019-04-19T14:14:35.496Z,1027.61
2019-04-19T14:15:36.153Z,1027.58
2019-04-19T14:16:35.643Z,1027.6
2019-04-19T14:17:35.972Z,1027.59
2019-04-19T14:18:35.603Z,1027.56
2019-04-19T14:19:36.578Z,1027.59
2019-04-19T14:21:36.789Z,1027.5
2019-04-19T14:22:35.693Z,1027.52
2019-04-19T14:23:35.720Z,1027.49
2019-04-19T14:24:35.743Z,1027.5
2019-04-19T14:25:37.016Z,1027.43
2019-04-19T14:26:41.582Z,1027.49
2019-04-19T14:27:35.818Z,1027.44
2019-04-19T14:28:35.908Z,1027.43
2019-04-19T14:29:37.193Z,1027.41
2019-04-19T14:30:35.895Z,1027.47
2019-04-19T14:31:36.564Z,1027.39
2019-04-19T14:32:37.047Z,1027.36
2019-04-19T14:33:36.981Z,1027.36
2019-04-19T14:34:37.298Z,1027.35
2019-04-19T14:36:36.274Z,1027.29
2019-04-19T14:37:36.339Z,1027.39
2019-04-19T14:38:36.095Z,1027.34
2019-04-19T14:39:36.387Z,1027.28
2019-04-19T14:40:37.323Z,1027.28
2019-04-19T14:41:36.170Z,1027.24
2019-04-19T14:42:36.397Z,1027.28
2019-04-19T14:43:36.605Z,1027.27
2019-04-19T14:44:36.264Z,1027.23
2019-04-19T14:45:36.273Z,1027.2
2019-04-19T14:46:36.655Z,1027.21
2019-04-19T14:47:37.028Z,1027.21
2019-04-19T14:48:39.920Z,1027.22
2019-04-19T14:49:36.769Z,1027.24
2019-04-19T14:50:46.119Z,1027.22
2019-04-19T14:51:39.121Z,1027.24
2019-04-19T14:52:36.611Z,1027.18
2019-04-19T14:53:36.629Z,1027.19
2019-04-19T14:54:36.497Z,1027.19
2019-04-19T14:55:37.715Z,1027.15
2019-04-19T14:56:37.116Z,1027.16
2019-04-19T14:57:36.832Z,1027.13
2019-04-19T14:58:36.599Z,1027.13
2019-04-19T14:59:36.765Z,1027.16
2019-04-19T15:00:36.921Z,1027.17
2019-04-19T15:01:37.006Z,1027.11
2019-04-19T15:02:36.713Z,1027.13
2019-04-19T15:03:36.931Z,1027.05
2019-04-19T15:04:37.054Z,1027.15
2019-04-19T15:05:37.407Z,1027.17
2019-04-19T15:06:37.636Z,1027.1
2019-04-19T15:08:37.300Z,1027.12
2019-04-19T15:09:37.439Z,1027.14
2019-04-19T15:10:37.685Z,1027.07
2019-04-19T15:11:36.920Z,1027.09
2019-04-19T15:12:36.945Z,1027.12
2019-04-19T15:13:36.984Z,1027.08
2019-04-19T15:14:36.995Z,1027.06
2019-04-19T15:15:37.768Z,1027.08
2019-04-19T15:16:39.251Z,1027.05
2019-04-19T15:17:37.071Z,1027.04
2019-04-19T15:18:37.580Z,1026.97
2019-04-19T15:19:37.463Z,1026.99
2019-04-19T15:20:38.144Z,1026.97
2019-04-19T15:21:38.235Z,1026.97
2019-04-19T15:22:38.054Z,1026.98
2019-04-19T15:24:37.245Z,1026.97
2019-04-19T15:25:37.269Z,1026.98
2019-04-19T15:26:38.528Z,1026.98
2019-04-19T15:27:37.319Z,1026.95
2019-04-19T15:28:37.343Z,1026.95
2019-04-19T15:29:37.368Z,1026.95
2019-04-19T15:30:37.393Z,1026.99
2019-04-19T15:31:38.603Z,1026.93
2019-04-19T15:32:38.283Z,1026.92
2019-04-19T15:33:38.502Z,1026.89
2019-04-19T15:34:37.818Z,1026.9
2019-04-19T15:35:37.591Z,1026.89
2019-04-19T15:36:37.737Z,1026.91
2019-04-19T15:37:38.024Z,1026.92
2019-04-19T15:38:37.756Z,1026.93
2019-04-19T15:40:38.324Z,1026.91
2019-04-19T15:41:37.949Z,1026.89
2019-04-19T15:42:38.788Z,1026.95
2019-04-19T15:43:38.339Z,1026.85
2019-04-19T15:44:37.741Z,1026.96
2019-04-19T15:45:38.954Z,1026.88
2019-04-19T15:46:37.901Z,1026.85
2019-04-19T15:47:38.727Z,1026.83
2019-04-19T15:48:43.861Z,1026.88
2019-04-19T15:49:37.968Z,1026.86
2019-04-19T15:50:38.137Z,1026.89
2019-04-19T15:51:40.726Z,1026.88
2019-04-19T15:52:37.939Z,1026.83
2019-04-19T15:53:38.186Z,1026.82
2019-04-19T15:54:38.128Z,1026.83
2019-04-19T15:56:38.259Z,1026.77
2019-04-19T15:57:38.397Z,1026.79
2019-04-19T15:58:38.683Z,1026.76
2019-04-19T15:59:39.054Z,1026.78
2019-04-19T16:00:38.356Z,1026.74
2019-04-19T16:01:38.161Z,1026.76
2019-04-19T16:02:38.186Z,1026.73
2019-04-19T16:03:38.225Z,1026.76
2019-04-19T16:04:38.235Z,1026.77
2019-04-19T16:05:38.259Z,1026.79
2019-04-19T16:06:38.403Z,1026.78
2019-04-19T16:07:38.310Z,1026.75
2019-04-19T16:08:38.687Z,1026.77
2019-04-19T16:09:39.689Z,1026.75
2019-04-19T16:11:38.651Z,1026.79
2019-04-19T16:12:39.761Z,1026.76